createdAt,value
2022-08-19T00:00:23.050Z,55.80
2022-08-19T00:02:50.299Z,55.80
2022-08-19T00:05:21.135Z,55.90
2022-08-19T00:07:51.429Z,56.00
2022-08-19T00:10:21.573Z,56.00
2022-08-19T00:12:52.174Z,56.00
2022-08-19T00:15:21.238Z,56.20
2022-08-19T00:17:53.625Z,56.30
2022-08-19T00:20:25.618Z,56.30
2022-08-19T00:22:52.931Z,56.30
2022-08-19T00:25:30.193Z,56.30
2022-08-19T00:27:57.890Z,56.20
2022-08-19T00:30:24.752Z,56.20
2022-08-19T00:32:51.582Z,56.30
2022-08-19T00:35:19.218Z,56.40
2022-08-19T00:37:52.437Z,56.30
2022-08-19T00:40:20.219Z,56.50
2022-08-19T00:42:47.389Z,56.50
2022-08-19T00:45:21.619Z,56.80
2022-08-19T00:47:48.338Z,57.10
2022-08-19T00:50:19.874Z,56.70
2022-08-19T00:52:51.656Z,56.80
2022-08-19T00:55:28.918Z,56.80
2022-08-19T00:58:01.874Z,56.90
2022-08-19T01:00:30.792Z,57.00
2022-08-19T01:02:57.578Z,56.70
2022-08-19T01:05:30.801Z,56.70
2022-08-19T01:08:03.273Z,56.80
2022-08-19T01:10:37.059Z,56.50
2022-08-19T01:13:04.866Z,56.60
2022-08-19T01:15:36.257Z,56.70
2022-08-19T01:18:11.873Z,57.00
2022-08-19T01:20:42.241Z,57.20
2022-08-19T01:23:09.740Z,56.90
2022-08-19T01:25:45.008Z,57.10
2022-08-19T01:28:40.040Z,57.30
2022-08-19T01:31:26.425Z,57.60
2022-08-19T01:33:58.411Z,57.50
2022-08-19T01:36:53.161Z,57.40
2022-08-19T01:39:25.164Z,57.80
2022-08-19T01:41:55.229Z,57.30
2022-08-19T01:44:24.752Z,57.30
2022-08-19T01:46:52.459Z,57.60
2022-08-19T01:49:21.679Z,57.70
2022-08-19T01:51:53.053Z,57.70
2022-08-19T01:54:27.896Z,57.40
2022-08-19T01:57:04.583Z,57.40
2022-08-19T01:59:32.694Z,58.20
2022-08-19T02:01:59.408Z,57.40
2022-08-19T02:04:28.446Z,57.40
2022-08-19T02:06:57.960Z,57.70
2022-08-19T02:09:24.655Z,57.70
2022-08-19T02:11:51.526Z,57.70
2022-08-19T02:14:20.828Z,57.80
2022-08-19T02:16:47.541Z,57.90
2022-08-19T02:19:16.354Z,58.00
2022-08-19T02:21:45.582Z,58.30
2022-08-19T02:24:13.376Z,58.90
2022-08-19T02:26:43.568Z,59.00
2022-08-19T02:29:13.411Z,59.20
2022-08-19T02:31:41.675Z,59.30
2022-08-19T02:34:10.853Z,60.70
2022-08-19T02:36:37.776Z,61.60
2022-08-19T02:39:14.408Z,61.70
2022-08-19T02:41:43.191Z,61.50
2022-08-19T02:44:22.884Z,62.10
2022-08-19T02:46:57.926Z,62.60
2022-08-19T02:49:35.129Z,62.50
2022-08-19T02:52:02.012Z,63.10
2022-08-19T02:54:29.461Z,62.50
2022-08-19T02:57:00.480Z,63.20
2022-08-19T02:59:30.290Z,63.70
2022-08-19T03:01:57.277Z,62.80
2022-08-19T03:04:27.521Z,62.40
2022-08-19T03:07:10.602Z,62.60
2022-08-19T03:09:38.628Z,62.60
2022-08-19T03:12:08.596Z,63.20
2022-08-19T03:14:39.870Z,63.10
2022-08-19T03:17:07.491Z,63.50
2022-08-19T03:19:41.001Z,63.30
2022-08-19T03:22:10.581Z,63.20
2022-08-19T03:24:38.292Z,63.00
2022-08-19T03:27:06.201Z,63.10
2022-08-19T03:29:43.021Z,63.50
2022-08-19T03:32:10.368Z,63.80
2022-08-19T03:34:57.899Z,63.90
2022-08-19T03:37:24.549Z,63.10
2022-08-19T03:39:52.625Z,62.80
2022-08-19T03:42:38.813Z,63.20
2022-08-19T03:45:13.886Z,63.60
2022-08-19T03:47:40.628Z,63.40
2022-08-19T03:50:07.767Z,63.90
2022-08-19T03:52:35.603Z,64.40
2022-08-19T03:55:05.497Z,64.70
2022-08-19T03:57:34.021Z,64.70
2022-08-19T04:00:12.531Z,65.00
2022-08-19T04:02:42.801Z,65.20
2022-08-19T04:05:23.237Z,65.20
2022-08-19T04:07:54.993Z,64.70
2022-08-19T04:10:21.707Z,64.40
2022-08-19T04:12:50.519Z,65.00
2022-08-19T04:15:20.455Z,65.20
2022-08-19T04:17:47.543Z,65.40
2022-08-19T04:20:18.316Z,65.50
2022-08-19T04:22:47.967Z,65.50
2022-08-19T04:25:19.504Z,65.50
2022-08-19T04:27:47.362Z,65.80
2022-08-19T04:30:15.389Z,65.50
2022-08-19T04:32:44.498Z,65.60
2022-08-19T04:35:17.484Z,65.60
2022-08-19T04:37:46.158Z,65.70
2022-08-19T04:40:31.354Z,65.80
2022-08-19T04:42:58.134Z,65.80
2022-08-19T04:45:24.910Z,66.50
2022-08-19T04:47:58.228Z,66.10
2022-08-19T04:50:27.661Z,66.60
2022-08-19T04:52:56.256Z,66.30
2022-08-19T04:55:22.977Z,66.20
2022-08-19T04:57:49.852Z,66.30
2022-08-19T05:00:16.616Z,66.40
2022-08-19T05:02:43.925Z,66.40
2022-08-19T05:05:10.811Z,66.40
2022-08-19T05:07:37.771Z,66.60
2022-08-19T05:10:06.915Z,66.60
2022-08-19T05:12:33.920Z,66.80
2022-08-19T05:15:01.713Z,66.60
2022-08-19T05:17:32.408Z,66.50
2022-08-19T05:20:20.608Z,66.60
2022-08-19T05:22:48.592Z,66.60
2022-08-19T05:25:19.927Z,66.50
2022-08-19T05:27:46.940Z,66.80
2022-08-19T05:30:14.433Z,66.50
2022-08-19T05:32:41.758Z,66.80
2022-08-19T05:35:09.210Z,66.90
2022-08-19T05:37:35.981Z,66.90
2022-08-19T05:40:04.524Z,67.00
2022-08-19T05:42:31.522Z,67.10
2022-08-19T05:44:58.350Z,67.00
2022-08-19T05:47:25.073Z,67.00
2022-08-19T05:49:51.963Z,67.10
2022-08-19T05:52:19.316Z,67.10
2022-08-19T05:54:51.122Z,67.30
2022-08-19T05:57:19.737Z,67.40
2022-08-19T05:59:52.779Z,67.40
2022-08-19T06:02:20.503Z,67.40
2022-08-19T06:04:47.325Z,67.40
2022-08-19T06:07:14.039Z,67.50
2022-08-19T06:09:59.113Z,67.60
2022-08-19T06:12:35.880Z,67.70
2022-08-19T06:15:06.543Z,67.90
2022-08-19T06:17:35.645Z,67.70
2022-08-19T06:20:04.946Z,67.60
2022-08-19T06:22:31.668Z,67.70
2022-08-19T06:24:58.486Z,67.90
2022-08-19T06:27:25.421Z,67.90
2022-08-19T06:29:52.122Z,67.90
2022-08-19T06:32:20.042Z,67.80
2022-08-19T06:34:47.345Z,67.60
2022-08-19T06:37:14.411Z,67.50
2022-08-19T06:39:43.365Z,67.50
2022-08-19T06:42:12.936Z,67.70
2022-08-19T06:44:43.534Z,67.50
2022-08-19T06:47:23.822Z,67.40
2022-08-19T06:50:03.816Z,67.60
2022-08-19T06:52:34.812Z,67.70
2022-08-19T06:55:05.890Z,67.40
2022-08-19T06:57:34.078Z,67.10
2022-08-19T07:00:03.631Z,66.70
2022-08-19T07:02:30.352Z,66.70
2022-08-19T07:04:59.063Z,66.40
2022-08-19T07:07:29.122Z,66.30
2022-08-19T07:09:59.996Z,65.80
2022-08-19T07:12:33.725Z,65.60
2022-08-19T07:15:04.210Z,65.50
2022-08-19T07:17:31.024Z,65.40
2022-08-19T07:19:57.850Z,65.40
2022-08-19T07:22:32.587Z,65.70
2022-08-19T07:24:59.281Z,65.50
2022-08-19T07:27:26.247Z,65.40
2022-08-19T07:29:54.471Z,65.50
2022-08-19T07:32:23.438Z,65.70
2022-08-19T07:34:50.183Z,65.40
2022-08-19T07:37:17.233Z,65.50
2022-08-19T07:39:45.221Z,65.60
2022-08-19T07:42:13.332Z,65.40
2022-08-19T07:44:47.838Z,65.50
2022-08-19T07:47:47.447Z,65.70
2022-08-19T07:50:08.224Z,65.40
2022-08-19T07:52:35.624Z,65.30
2022-08-19T07:55:04.772Z,65.50
2022-08-19T07:57:31.630Z,65.30
2022-08-19T07:59:58.359Z,65.10
2022-08-19T08:02:25.062Z,64.80
2022-08-19T08:05:10.648Z,64.40
2022-08-19T08:07:56.117Z,64.10
2022-08-19T08:10:24.146Z,63.80
2022-08-19T08:13:08.785Z,63.60
2022-08-19T08:15:42.554Z,63.40
2022-08-19T08:18:10.787Z,62.90
2022-08-19T08:20:37.629Z,63.00
2022-08-19T08:23:22.999Z,62.50
2022-08-19T08:25:50.435Z,62.60
2022-08-19T08:28:18.397Z,62.40
2022-08-19T08:30:48.233Z,62.30
2022-08-19T08:33:28.529Z,62.30
2022-08-19T08:36:08.340Z,62.30
2022-08-19T08:38:39.725Z,62.20
2022-08-19T08:41:20.414Z,61.80
2022-08-19T08:43:51.941Z,61.30
2022-08-19T08:46:31.599Z,61.60
2022-08-19T08:49:21.377Z,61.80
2022-08-19T08:51:59.987Z,61.40
2022-08-19T08:54:55.260Z,61.60
2022-08-19T08:57:37.669Z,60.80
2022-08-19T09:00:17.174Z,60.60
2022-08-19T09:02:45.312Z,60.10
2022-08-19T09:05:22.385Z,59.90
2022-08-19T09:08:22.030Z,60.00
2022-08-19T09:10:55.082Z,60.10
2022-08-19T09:13:34.757Z,59.70
2022-08-19T09:16:12.313Z,59.60
2022-08-19T09:18:46.865Z,59.60
2022-08-19T09:21:14.942Z,59.60
2022-08-19T09:23:42.067Z,59.70
2022-08-19T09:26:16.425Z,59.80
2022-08-19T09:28:48.288Z,59.60
2022-08-19T09:31:18.979Z,59.70
2022-08-19T09:33:46.220Z,59.60
2022-08-19T09:36:34.858Z,59.40
2022-08-19T09:39:02.214Z,59.20
2022-08-19T09:41:30.976Z,58.80
2022-08-19T09:43:59.512Z,58.70
2022-08-19T09:46:29.854Z,58.60
2022-08-19T09:49:03.071Z,58.80
2022-08-19T09:51:33.955Z,58.50
2022-08-19T09:54:04.791Z,58.60
2022-08-19T09:56:35.215Z,58.10
2022-08-19T09:59:04.627Z,58.10
2022-08-19T10:01:32.844Z,57.70
2022-08-19T10:04:01.071Z,57.60
2022-08-19T10:06:45.784Z,57.30
2022-08-19T10:09:15.059Z,57.60
2022-08-19T10:11:51.228Z,57.00
2022-08-19T10:14:23.286Z,56.90
2022-08-19T10:16:51.887Z,56.50
2022-08-19T10:19:25.587Z,56.50
2022-08-19T10:21:54.410Z,56.20
2022-08-19T10:24:28.416Z,55.80
2022-08-19T10:26:57.255Z,54.90
2022-08-19T10:29:31.835Z,54.60
2022-08-19T10:32:09.448Z,54.10
2022-08-19T10:34:37.794Z,53.90
2022-08-19T10:37:28.952Z,54.00
2022-08-19T10:39:58.189Z,53.40
2022-08-19T10:42:25.006Z,53.40
2022-08-19T10:44:52.196Z,53.00
2022-08-19T10:47:25.883Z,52.60
2022-08-19T10:50:12.919Z,52.90
2022-08-19T10:52:50.134Z,52.50
2022-08-19T10:55:41.154Z,51.10
2022-08-19T10:58:17.869Z,51.70
2022-08-19T11:00:51.684Z,51.20
2022-08-19T11:03:21.113Z,51.30
2022-08-19T11:05:49.748Z,50.90
2022-08-19T11:08:23.115Z,50.70
2022-08-19T11:10:54.395Z,50.60
2022-08-19T11:13:21.092Z,50.50
2022-08-19T11:15:48.258Z,50.70
2022-08-19T11:18:15.033Z,50.40
2022-08-19T11:20:42.249Z,50.00
2022-08-19T11:23:08.994Z,49.90
2022-08-19T11:25:36.204Z,49.70
2022-08-19T11:28:03.158Z,49.00
2022-08-19T11:30:31.873Z,48.90
2022-08-19T11:32:58.601Z,49.00
2022-08-19T11:35:25.262Z,49.00
2022-08-19T11:37:52.049Z,49.10
2022-08-19T11:40:19.075Z,49.20
2022-08-19T11:42:57.908Z,49.00
2022-08-19T11:45:26.498Z,49.20
2022-08-19T11:47:54.180Z,48.90
2022-08-19T11:50:21.646Z,48.10
2022-08-19T11:52:50.496Z,47.10
2022-08-19T11:55:17.300Z,46.60
2022-08-19T11:57:44.509Z,45.80
2022-08-19T12:00:15.153Z,45.30
2022-08-19T12:02:41.997Z,44.80
2022-08-19T12:05:12.194Z,45.50
2022-08-19T12:07:40.550Z,46.30
2022-08-19T12:10:07.546Z,45.70
2022-08-19T12:12:35.685Z,45.30
2022-08-19T12:15:03.190Z,45.00
2022-08-19T12:17:31.751Z,44.90
2022-08-19T12:19:58.624Z,45.20
2022-08-19T12:22:25.352Z,44.80
2022-08-19T12:24:54.140Z,44.80
2022-08-19T12:27:32.315Z,44.90
2022-08-19T12:30:10.184Z,44.60
2022-08-19T12:32:36.909Z,44.20
2022-08-19T12:35:09.029Z,44.40
2022-08-19T12:37:35.902Z,43.30
2022-08-19T12:40:04.138Z,43.00
2022-08-19T12:42:31.368Z,43.10
2022-08-19T12:44:58.133Z,43.60
2022-08-19T12:47:26.910Z,42.70
2022-08-19T12:50:06.910Z,42.50
2022-08-19T12:52:33.800Z,41.70
2022-08-19T12:55:02.955Z,41.90
2022-08-19T12:57:31.965Z,41.90
2022-08-19T13:00:01.810Z,41.00
2022-08-19T13:02:33.048Z,41.70
2022-08-19T13:05:12.775Z,41.20
2022-08-19T13:07:40.453Z,41.80
2022-08-19T13:10:12.731Z,42.10
2022-08-19T13:12:40.170Z,42.40
2022-08-19T13:15:10.891Z,42.30
2022-08-19T13:17:39.843Z,42.20
2022-08-19T13:20:09.303Z,41.50
2022-08-19T13:22:38.312Z,41.40
2022-08-19T13:25:06.688Z,41.40
2022-08-19T13:27:33.630Z,41.80
2022-08-19T13:30:27.584Z,41.70
2022-08-19T13:33:17.025Z,41.70
2022-08-19T13:35:53.867Z,41.70
2022-08-19T13:38:22.169Z,41.50
2022-08-19T13:40:51.248Z,41.20
2022-08-19T13:43:23.823Z,40.90
2022-08-19T13:46:01.341Z,42.10
2022-08-19T13:48:28.199Z,41.70
2022-08-19T13:50:57.420Z,42.90
2022-08-19T13:53:26.193Z,41.00
2022-08-19T13:55:54.452Z,39.50
2022-08-19T13:58:26.287Z,37.80
2022-08-19T14:00:54.931Z,36.50
2022-08-19T14:03:26.418Z,38.90
2022-08-19T14:05:53.197Z,36.30
2022-08-19T14:08:24.426Z,36.20
2022-08-19T14:10:51.228Z,36.10
2022-08-19T14:13:25.685Z,37.00
2022-08-19T14:15:55.468Z,37.30
2022-08-19T14:18:22.413Z,37.60
2022-08-19T14:20:53.563Z,37.70
2022-08-19T14:23:20.927Z,37.90
2022-08-19T14:25:47.781Z,38.00
2022-08-19T14:28:14.577Z,38.50
2022-08-19T14:30:41.349Z,39.00
2022-08-19T14:33:09.350Z,39.20
2022-08-19T14:35:36.780Z,39.60
2022-08-19T14:38:15.364Z,41.10
2022-08-19T14:40:42.954Z,40.80
2022-08-19T14:43:11.252Z,40.90
2022-08-19T14:45:40.843Z,39.60
2022-08-19T14:48:18.919Z,38.90
2022-08-19T14:50:46.378Z,38.50
2022-08-19T14:53:13.285Z,38.40
2022-08-19T14:55:47.636Z,38.40
2022-08-19T14:58:29.087Z,38.60
2022-08-19T15:00:59.979Z,39.40
2022-08-19T15:03:26.901Z,40.00
2022-08-19T15:05:53.760Z,39.90
2022-08-19T15:08:24.402Z,40.00
2022-08-19T15:10:51.666Z,40.30
2022-08-19T15:13:18.671Z,40.60
2022-08-19T15:15:46.299Z,41.20
2022-08-19T15:18:13.911Z,41.50
2022-08-19T15:20:42.220Z,42.00
2022-08-19T15:23:09.153Z,42.60
2022-08-19T15:25:36.544Z,42.80
2022-08-19T15:28:04.215Z,43.40
2022-08-19T15:30:31.216Z,43.80
2022-08-19T15:32:59.008Z,44.00
2022-08-19T15:35:26.284Z,44.50
2022-08-19T15:37:54.254Z,44.80
2022-08-19T15:40:22.860Z,45.10
2022-08-19T15:42:50.593Z,45.00
2022-08-19T15:45:19.609Z,45.20
2022-08-19T15:47:46.707Z,45.30
2022-08-19T15:50:18.265Z,45.30
2022-08-19T15:52:53.875Z,45.20
2022-08-19T15:55:33.391Z,45.00
2022-08-19T15:58:27.885Z,45.10
2022-08-19T16:01:26.999Z,45.10
2022-08-19T16:04:14.687Z,45.20
2022-08-19T16:06:49.250Z,45.30
2022-08-19T16:09:17.407Z,45.30
2022-08-19T16:11:46.199Z,45.40
2022-08-19T16:14:18.481Z,45.30
2022-08-19T16:16:47.122Z,45.70
2022-08-19T16:19:16.585Z,45.70
2022-08-19T16:21:49.593Z,45.80
2022-08-19T16:24:19.425Z,45.70
2022-08-19T16:26:50.207Z,46.00
2022-08-19T16:29:27.646Z,46.00
2022-08-19T16:32:03.641Z,45.80
2022-08-19T16:34:30.885Z,45.90
2022-08-19T16:36:58.029Z,45.70
2022-08-19T16:39:24.745Z,45.30
2022-08-19T16:41:51.706Z,45.10
2022-08-19T16:44:20.598Z,44.80
2022-08-19T16:46:54.807Z,44.90
2022-08-19T16:49:53.589Z,45.00
2022-08-19T16:52:16.988Z,45.20
2022-08-19T16:54:44.615Z,44.80
2022-08-19T16:57:12.776Z,45.00
2022-08-19T16:59:48.134Z,45.00
2022-08-19T17:02:22.409Z,45.40
2022-08-19T17:04:57.612Z,45.80
2022-08-19T17:07:28.585Z,45.90
2022-08-19T17:09:56.433Z,46.10
2022-08-19T17:12:31.665Z,46.20
2022-08-19T17:15:00.617Z,46.40
2022-08-19T17:17:29.294Z,46.40
2022-08-19T17:19:56.990Z,46.30
2022-08-19T17:22:23.981Z,46.60
2022-08-19T17:24:50.635Z,46.80
2022-08-19T17:27:19.578Z,46.80
2022-08-19T17:29:47.132Z,46.80
2022-08-19T17:32:15.248Z,46.90
2022-08-19T17:34:41.990Z,47.20
2022-08-19T17:37:08.750Z,47.20
2022-08-19T17:39:39.573Z,47.30
2022-08-19T17:42:08.228Z,47.40
2022-08-19T17:44:36.534Z,47.70
2022-08-19T17:47:04.211Z,47.80
2022-08-19T17:49:33.268Z,48.00
2022-08-19T17:52:06.158Z,48.20
2022-08-19T17:54:38.449Z,48.40
2022-08-19T17:57:08.360Z,48.60
2022-08-19T17:59:37.279Z,48.80
2022-08-19T18:02:06.988Z,48.90
2022-08-19T18:04:38.197Z,49.20
2022-08-19T18:07:08.196Z,49.60
2022-08-19T18:09:41.475Z,49.70
2022-08-19T18:12:13.878Z,50.10
2022-08-19T18:14:45.267Z,50.00
2022-08-19T18:17:20.852Z,50.40
2022-08-19T18:19:50.038Z,50.80
2022-08-19T18:22:27.624Z,51.00
2022-08-19T18:24:59.883Z,51.60
2022-08-19T18:27:29.266Z,51.90
2022-08-19T18:30:00.922Z,52.00
2022-08-19T18:32:33.774Z,52.20
2022-08-19T18:35:02.244Z,52.30
2022-08-19T18:37:29.436Z,52.40
2022-08-19T18:40:15.029Z,52.50
2022-08-19T18:43:02.297Z,52.90
2022-08-19T18:45:48.529Z,53.40
2022-08-19T18:48:39.041Z,53.80
2022-08-19T18:51:10.184Z,54.00
2022-08-19T18:53:44.236Z,54.80
2022-08-19T18:56:14.028Z,55.80
2022-08-19T18:58:47.830Z,56.20
2022-08-19T19:01:18.730Z,57.20
2022-08-19T19:03:53.096Z,58.00
2022-08-19T19:06:24.450Z,58.00
2022-08-19T19:08:52.715Z,58.50
2022-08-19T19:11:29.690Z,58.80
2022-08-19T19:13:59.323Z,60.00
2022-08-19T19:16:29.244Z,59.60
2022-08-19T19:19:00.732Z,60.00
2022-08-19T19:21:30.856Z,60.10
2022-08-19T19:24:03.293Z,60.60
2022-08-19T19:26:32.470Z,61.40
2022-08-19T19:28:59.703Z,61.40
2022-08-19T19:31:29.157Z,61.00
2022-08-19T19:34:02.276Z,61.60
2022-08-19T19:36:31.798Z,61.30
2022-08-19T19:39:02.774Z,62.00
2022-08-19T19:41:41.397Z,61.90
2022-08-19T19:44:32.457Z,60.50
2022-08-19T19:47:01.482Z,60.70
2022-08-19T19:49:33.476Z,61.30
2022-08-19T19:52:03.076Z,61.30
2022-08-19T19:54:29.793Z,61.40
2022-08-19T19:56:56.474Z,61.50
2022-08-19T19:59:25.502Z,61.80
2022-08-19T20:01:55.139Z,61.70
2022-08-19T20:04:28.944Z,61.90
2022-08-19T20:06:55.682Z,61.10
2022-08-19T20:09:22.377Z,61.60
2022-08-19T20:11:53.588Z,62.00
2022-08-19T20:14:35.692Z,62.30
2022-08-19T20:17:03.100Z,62.70
2022-08-19T20:19:53.811Z,62.40
2022-08-19T20:22:23.274Z,62.60
2022-08-19T20:24:54.725Z,62.60
2022-08-19T20:27:25.082Z,62.60
2022-08-19T20:29:53.228Z,62.70
2022-08-19T20:32:20.093Z,62.70
2022-08-19T20:34:49.715Z,63.20
2022-08-19T20:37:18.302Z,63.30
2022-08-19T20:39:44.981Z,63.50
2022-08-19T20:42:14.461Z,63.80
2022-08-19T20:44:43.753Z,64.00
2022-08-19T20:47:10.466Z,63.90
2022-08-19T20:49:37.163Z,63.90
2022-08-19T20:52:07.903Z,63.90
2022-08-19T20:54:42.040Z,64.10
2022-08-19T20:57:11.508Z,64.00
2022-08-19T20:59:45.976Z,64.60
2022-08-19T21:02:14.766Z,64.00
2022-08-19T21:04:41.497Z,64.20
2022-08-19T21:07:08.802Z,64.40
2022-08-19T21:09:40.135Z,64.40
2022-08-19T21:12:12.682Z,64.70
2022-08-19T21:14:42.714Z,64.40
2022-08-19T21:17:09.675Z,64.50
2022-08-19T21:19:39.750Z,64.60
2022-08-19T21:22:06.796Z,64.80
2022-08-19T21:24:36.197Z,64.80
2022-08-19T21:27:03.275Z,64.90
2022-08-19T21:29:35.939Z,64.90
2022-08-19T21:32:04.983Z,65.00
2022-08-19T21:34:31.744Z,65.00
2022-08-19T21:36:58.492Z,65.10
2022-08-19T21:39:25.329Z,65.10
2022-08-19T21:41:54.581Z,65.20
2022-08-19T21:44:26.486Z,65.50
2022-08-19T21:46:55.982Z,65.40
2022-08-19T21:49:25.187Z,65.40
2022-08-19T21:51:58.127Z,65.50
2022-08-19T21:54:25.092Z,65.50
2022-08-19T21:56:53.981Z,65.70
2022-08-19T21:59:21.919Z,65.80
2022-08-19T22:01:52.055Z,65.80
2022-08-19T22:04:28.012Z,65.90
2022-08-19T22:06:54.668Z,66.00
2022-08-19T22:09:21.363Z,66.00
2022-08-19T22:11:49.011Z,66.20
2022-08-19T22:14:15.678Z,66.20
2022-08-19T22:16:43.033Z,66.20
2022-08-19T22:19:11.051Z,66.20
2022-08-19T22:21:41.201Z,67.00
2022-08-19T22:24:08.613Z,66.40
2022-08-19T22:26:37.581Z,66.50
2022-08-19T22:29:04.325Z,66.50
2022-08-19T22:31:33.719Z,66.60
2022-08-19T22:34:01.748Z,66.70
2022-08-19T22:36:28.430Z,66.80
2022-08-19T22:38:56.330Z,66.80
2022-08-19T22:41:25.373Z,66.90
2022-08-19T22:43:54.773Z,67.10
2022-08-19T22:46:21.506Z,67.40
2022-08-19T22:48:49.485Z,67.40
2022-08-19T22:51:46.322Z,67.60
2022-08-19T22:54:13.101Z,67.80
2022-08-19T22:56:39.801Z,67.80
2022-08-19T22:59:09.734Z,67.70
2022-08-19T23:01:36.951Z,67.80
2022-08-19T23:04:05.422Z,68.10
2022-08-19T23:06:33.849Z,68.30
2022-08-19T23:09:08.220Z,68.50
2022-08-19T23:11:42.984Z,68.40
2022-08-19T23:14:13.686Z,68.60
2022-08-19T23:16:47.865Z,68.40
2022-08-19T23:19:17.417Z,68.60
2022-08-19T23:21:44.177Z,68.40
2022-08-19T23:24:11.326Z,68.80
2022-08-19T23:26:38.527Z,68.90
2022-08-19T23:29:24.371Z,68.90
2022-08-19T23:31:53.650Z,68.90
2022-08-19T23:34:20.359Z,69.30
2022-08-19T23:36:47.039Z,69.10
2022-08-19T23:39:19.634Z,69.20
2022-08-19T23:41:46.377Z,69.40
2022-08-19T23:44:15.137Z,69.40
2022-08-19T23:46:55.389Z,69.30
2022-08-19T23:49:23.262Z,69.50
2022-08-19T23:51:50.001Z,69.50
2022-08-19T23:54:16.673Z,69.60
2022-08-19T23:56:43.390Z,70.50
2022-08-19T23:59:14.010Z,69.90
